Sunshine, Maryland
Current Conditions -  °F | °C
As of 5:55 AM on Friday 31 Oct 2014 (Local Time) from KGAI Reporting Station
Scattered Clouds Scattered Clouds  
Wind Chill: 45°   Ceiling: Unl
Heat Index: 45°   Visibility: 10mi
Dew Point: 37°   Wind: 0mph
Humidity: 76%   Direction: NA
Pressure: 30.04"   Gusts: NA
Location:  39.2065°N, 77.0575°W
Report Text: KGAI 310955Z 00000KT 10SM SCT050 07/03 A3004 RMK AO1
Loading
Personal Weather Stations






























Interactive Weather Map
Tropical Storm Tracking
New forecast layout! Learn more

10-Day Weather Forecast

Advertisements
Track Severe Weather on mobile